createdAt,value
2022-08-10T00:03:34.825Z,66.76
2022-08-10T00:08:36.775Z,67.43
2022-08-10T00:13:38.204Z,68.20
2022-08-10T00:18:39.579Z,69.04
2022-08-10T00:23:40.919Z,68.83
2022-08-10T00:28:42.277Z,68.45
2022-08-10T00:33:43.626Z,70.39
2022-08-10T00:38:45.000Z,69.85
2022-08-10T00:43:46.339Z,70.41
2022-08-10T00:48:47.746Z,70.90
2022-08-10T00:54:02.152Z,70.92
2022-08-10T00:59:03.550Z,71.37
2022-08-10T01:04:54.598Z,71.78
2022-08-10T01:09:34.947Z,72.02
2022-08-10T01:14:47.479Z,72.77
2022-08-10T01:19:54.684Z,72.71
2022-08-10T01:25:11.602Z,73.44
2022-08-10T01:30:14.330Z,73.20
2022-08-10T01:35:34.665Z,74.36
2022-08-10T01:40:40.075Z,75.17
2022-08-10T01:45:46.124Z,75.34
2022-08-10T01:50:59.516Z,75.74
2022-08-10T01:56:02.648Z,76.73
2022-08-10T02:01:04.610Z,77.33
2022-08-10T02:06:07.359Z,77.70
2022-08-10T02:11:10.332Z,78.16
2022-08-10T02:16:13.035Z,78.37
2022-08-10T02:21:14.431Z,78.71
2022-08-10T02:26:16.085Z,79.12
2022-08-10T02:31:22.272Z,79.46
2022-08-10T02:36:26.792Z,79.74
2022-08-10T02:45:12.481Z,80.75
2022-08-10T02:47:02.346Z,81.67
2022-08-10T02:52:08.991Z,81.81
2022-08-10T02:57:18.955Z,82.30
2022-08-10T03:02:25.200Z,82.73
2022-08-10T03:07:42.793Z,83.21
2022-08-10T03:12:49.276Z,83.18
2022-08-10T03:17:57.493Z,83.60
2022-08-10T03:23:01.440Z,84.30
2022-08-10T03:28:03.244Z,84.71
2022-08-10T03:33:06.443Z,84.76
2022-08-10T03:38:07.815Z,85.46
2022-08-10T03:43:11.450Z,86.17
2022-08-10T03:48:13.373Z,86.38
2022-08-10T03:54:02.379Z,86.17
2022-08-10T03:58:36.567Z,86.72
2022-08-10T04:03:37.965Z,86.87
2022-08-10T04:08:40.025Z,87.34
2022-08-10T04:13:41.378Z,87.90
2022-08-10T04:18:42.727Z,87.97
2022-08-10T04:23:49.914Z,88.08
2022-08-10T04:28:54.159Z,88.23
2022-08-10T04:33:57.843Z,88.11
2022-08-10T04:38:59.615Z,87.69
2022-08-10T04:44:01.143Z,87.90
2022-08-10T04:49:02.591Z,87.88
2022-08-10T04:54:07.202Z,87.78
2022-08-10T04:59:10.391Z,87.32
2022-08-10T05:04:34.974Z,86.62
2022-08-10T05:09:33.096Z,85.46
2022-08-10T05:14:54.723Z,84.55
2022-08-10T05:20:03.032Z,83.97
2022-08-10T05:25:08.126Z,83.14
2022-08-10T05:30:11.253Z,82.70
2022-08-10T05:35:12.649Z,81.67
2022-08-10T05:40:14.051Z,80.14
2022-08-10T05:45:26.655Z,80.39
2022-08-10T05:50:31.069Z,67.50
2022-08-10T05:55:32.486Z,57.85
2022-08-10T06:00:40.663Z,53.03
2022-08-10T06:05:44.947Z,48.71
2022-08-10T06:12:21.682Z,51.03
2022-08-10T06:16:09.841Z,46.83
2022-08-10T06:21:11.731Z,48.23
2022-08-10T06:26:16.420Z,42.53
2022-08-10T06:31:20.027Z,49.17
2022-08-10T06:36:22.960Z,45.56
2022-08-10T06:42:14.934Z,39.84
2022-08-10T06:46:49.852Z,39.86
2022-08-10T06:51:57.148Z,40.59
2022-08-10T06:57:17.356Z,37.50
2022-08-10T07:02:27.351Z,41.50
2022-08-10T07:07:32.150Z,41.58
2022-08-10T07:12:36.581Z,36.88
2022-08-10T07:17:39.698Z,35.89
2022-08-10T07:23:08.261Z,41.95
2022-08-10T07:28:03.559Z,40.14
2022-08-10T07:33:05.615Z,34.39
2022-08-10T07:38:07.487Z,35.94
2022-08-10T07:43:09.878Z,29.00
2022-08-10T07:48:16.439Z,33.97
2022-08-10T07:53:20.133Z,30.22
2022-08-10T07:58:25.077Z,30.12
2022-08-10T08:03:28.733Z,29.92
2022-08-10T08:08:30.912Z,27.72
2022-08-10T08:13:33.922Z,28.26
2022-08-10T08:18:37.079Z,28.82
2022-08-10T08:24:14.786Z,25.67
2022-08-10T08:29:04.867Z,24.68
2022-08-10T08:34:07.936Z,25.24
2022-08-10T08:39:10.611Z,22.58
2022-08-10T08:44:24.327Z,23.43
2022-08-10T08:50:08.318Z,24.57
2022-08-10T08:56:04.062Z,23.70
2022-08-10T09:00:48.399Z,25.13
2022-08-10T09:06:00.167Z,22.06
2022-08-10T09:11:20.295Z,22.32
2022-08-10T09:16:46.909Z,25.17
2022-08-10T09:21:58.673Z,24.54
2022-08-10T09:27:19.331Z,22.16
2022-08-10T09:36:14.847Z,24.21
2022-08-10T09:38:06.132Z,24.18
2022-08-10T09:43:26.271Z,23.14
2022-08-10T09:48:31.072Z,19.73
2022-08-10T09:53:44.610Z,21.23
2022-08-10T09:59:27.031Z,20.58
2022-08-10T10:04:25.937Z,20.98
2022-08-10T10:09:36.696Z,20.13
2022-08-10T10:15:09.041Z,19.31
2022-08-10T10:20:15.418Z,19.71
2022-08-10T10:25:50.847Z,20.70
2022-08-10T10:31:00.973Z,20.35
2022-08-10T10:36:03.076Z,19.56
2022-08-10T10:41:07.225Z,20.13
2022-08-10T10:46:11.602Z,21.06
2022-08-10T10:51:31.841Z,20.03
2022-08-10T10:56:42.592Z,20.38
2022-08-10T11:01:55.903Z,19.00
2022-08-10T11:07:13.154Z,19.76
2022-08-10T11:12:23.255Z,19.64
2022-08-10T11:17:31.945Z,20.68
2022-08-10T11:22:41.230Z,21.14
2022-08-10T11:27:48.854Z,19.97
2022-08-10T11:33:10.462Z,20.51
2022-08-10T11:38:32.900Z,22.36
2022-08-10T11:43:42.122Z,19.82
2022-08-10T11:48:53.693Z,19.39
2022-08-10T11:54:04.754Z,20.79
2022-08-10T11:59:24.930Z,21.37
2022-08-10T12:04:27.895Z,20.36
2022-08-10T12:10:05.582Z,21.46
2022-08-10T12:14:59.379Z,22.05
2022-08-10T12:20:13.538Z,21.78
2022-08-10T12:25:56.055Z,22.75
2022-08-10T12:30:48.896Z,22.40
2022-08-10T12:36:17.349Z,21.89
2022-08-10T12:41:41.567Z,23.61
2022-08-10T12:46:51.055Z,21.85
2022-08-10T12:52:15.870Z,21.83
2022-08-10T12:57:19.185Z,21.38
2022-08-10T13:02:26.349Z,20.70
2022-08-10T13:08:25.844Z,21.57
2022-08-10T13:12:55.725Z,22.95
2022-08-10T13:17:59.566Z,21.32
2022-08-10T13:23:02.432Z,23.27
2022-08-10T13:28:35.945Z,21.92
2022-08-10T13:34:41.000Z,22.31
2022-08-10T13:38:50.704Z,23.77
2022-08-10T13:43:54.474Z,21.90
2022-08-10T13:48:57.799Z,21.61
2022-08-10T13:54:01.647Z,21.66
2022-08-10T13:59:07.903Z,21.60
2022-08-10T14:04:12.958Z,21.82
2022-08-10T14:09:17.673Z,22.67
2022-08-10T14:14:20.702Z,22.39
2022-08-10T14:19:27.714Z,23.11
2022-08-10T14:24:30.332Z,22.54
2022-08-10T14:29:33.547Z,22.35
2022-08-10T14:36:08.433Z,23.00
2022-08-10T14:40:02.667Z,23.85
2022-08-10T14:45:19.110Z,23.39
2022-08-10T14:50:32.520Z,23.42
2022-08-10T14:55:58.843Z,23.15
2022-08-10T15:00:56.994Z,23.89
2022-08-10T15:05:59.967Z,22.80
2022-08-10T15:11:01.712Z,23.86
2022-08-10T15:16:13.546Z,23.12
2022-08-10T15:21:17.550Z,24.89
2022-08-10T15:26:21.741Z,23.88
2022-08-10T15:31:23.629Z,24.03
2022-08-10T15:36:44.760Z,24.23
2022-08-10T15:41:59.084Z,23.46
2022-08-10T15:47:03.990Z,24.62
2022-08-10T15:52:13.176Z,23.80
2022-08-10T15:57:37.425Z,24.24
2022-08-10T16:02:45.101Z,24.53
2022-08-10T16:07:50.599Z,24.73
2022-08-10T16:12:59.852Z,25.33
2022-08-10T16:18:04.608Z,24.85
2022-08-10T16:23:08.555Z,24.62
2022-08-10T16:28:11.047Z,24.37
2022-08-10T16:33:28.086Z,24.63
2022-08-10T16:38:50.155Z,24.60
2022-08-10T16:43:51.813Z,24.29
2022-08-10T16:48:53.749Z,24.44
2022-08-10T16:53:58.909Z,25.72
2022-08-10T16:59:00.400Z,24.72
2022-08-10T17:04:05.762Z,25.50
2022-08-10T17:09:18.521Z,25.26
2022-08-10T17:14:24.302Z,25.34
2022-08-10T17:19:26.592Z,25.54
2022-08-10T17:24:30.204Z,25.85
2022-08-10T17:29:57.519Z,25.95
2022-08-10T17:34:57.818Z,25.91
2022-08-10T17:40:05.953Z,26.81
2022-08-10T17:45:13.319Z,26.92
2022-08-10T17:50:23.399Z,27.17
2022-08-10T17:55:24.998Z,26.97
2022-08-10T18:00:26.462Z,26.95
2022-08-10T18:05:32.096Z,27.93
2022-08-10T18:10:33.553Z,27.11
2022-08-10T18:15:39.175Z,28.30
2022-08-10T18:20:41.269Z,29.17
2022-08-10T18:25:44.421Z,28.60
2022-08-10T18:30:48.666Z,29.99
2022-08-10T18:35:51.364Z,31.38
2022-08-10T18:40:56.863Z,29.66
2022-08-10T18:46:00.011Z,30.09
2022-08-10T18:51:05.925Z,31.87
2022-08-10T18:56:26.602Z,32.91
2022-08-10T19:01:34.093Z,34.74
2022-08-10T19:06:58.946Z,36.53
2022-08-10T19:12:00.268Z,38.05
2022-08-10T19:17:01.587Z,39.00
2022-08-10T19:22:20.203Z,39.75
2022-08-10T19:27:33.881Z,40.23
2022-08-10T19:32:53.866Z,40.86
2022-08-10T19:38:32.098Z,41.61
2022-08-10T19:44:00.884Z,42.12
2022-08-10T19:49:13.908Z,42.52
2022-08-10T19:54:15.238Z,43.28
2022-08-10T20:00:16.804Z,44.02
2022-08-10T20:05:18.192Z,44.60
2022-08-10T20:10:31.758Z,45.34
2022-08-10T20:15:42.616Z,44.73
2022-08-10T20:20:53.329Z,45.38
2022-08-10T20:25:54.659Z,45.97
2022-08-10T20:31:02.455Z,46.77
2022-08-10T20:36:20.877Z,46.50
2022-08-10T20:41:23.009Z,47.13
2022-08-10T20:46:30.862Z,47.19
2022-08-10T20:51:59.578Z,47.85
2022-08-10T20:57:53.517Z,48.81
2022-08-10T21:02:48.758Z,47.55
2022-08-10T21:08:02.062Z,48.43
2022-08-10T21:13:09.801Z,49.15
2022-08-10T21:18:11.416Z,49.21
2022-08-10T21:23:13.996Z,50.13
2022-08-10T21:28:30.742Z,50.68
2022-08-10T21:33:42.784Z,49.98
2022-08-10T21:38:44.077Z,50.96
2022-08-10T21:44:25.666Z,50.28
2022-08-10T21:49:57.464Z,50.64
2022-08-10T21:55:57.473Z,50.85
2022-08-10T22:01:12.927Z,50.74
2022-08-10T22:06:40.212Z,50.59
2022-08-10T22:12:31.199Z,51.28
2022-08-10T22:18:03.624Z,51.08
2022-08-10T22:23:28.305Z,52.55
2022-08-10T22:28:48.862Z,51.55
2022-08-10T22:34:27.991Z,52.21
2022-08-10T22:40:13.413Z,52.02
2022-08-10T22:45:35.702Z,52.33
2022-08-10T22:50:37.435Z,51.62
2022-08-10T22:55:58.460Z,53.08
2022-08-10T23:01:05.697Z,53.52
2022-08-10T23:06:10.099Z,53.57
2022-08-10T23:11:16.117Z,54.23
2022-08-10T23:16:37.646Z,54.35
2022-08-10T23:22:05.764Z,55.58
2022-08-10T23:27:13.101Z,55.49
2022-08-10T23:32:32.532Z,55.42
2022-08-10T23:37:34.680Z,55.65
2022-08-10T23:42:38.575Z,56.48
2022-08-10T23:47:42.511Z,57.85
2022-08-10T23:52:54.960Z,56.73
2022-08-10T23:58:01.627Z,58.94
